createdAt,value
2023-04-16T00:00:40.018Z,97011.78
2023-04-16T00:03:06.455Z,97005.88
2023-04-16T00:05:32.852Z,97009.81
2023-04-16T00:07:59.141Z,97016.31
2023-04-16T00:10:25.407Z,97009.69
2023-04-16T00:12:51.697Z,97010.28
2023-04-16T00:15:17.948Z,97004.59
2023-04-16T00:17:44.288Z,97001.13
2023-04-16T00:20:10.589Z,97007.72
2023-04-16T00:22:36.848Z,97010.06
2023-04-16T00:25:03.161Z,97012.94
2023-04-16T00:27:29.409Z,97015.84
2023-04-16T00:29:55.670Z,97017.13
2023-04-16T00:32:21.983Z,97020.25
2023-04-16T00:34:48.251Z,97018.88
2023-04-16T00:37:14.488Z,97015.97
2023-04-16T00:39:40.745Z,97012.25
2023-04-16T00:42:07.005Z,97011.78
2023-04-16T00:44:33.275Z,97013.06
2023-04-16T00:46:59.517Z,97009.25
2023-04-16T00:49:25.815Z,97015.16
2023-04-16T00:51:52.089Z,97011.22
2023-04-16T00:54:18.355Z,97009.00
2023-04-16T00:56:44.649Z,97012.72
2023-04-16T00:59:11.105Z,97010.63
2023-04-16T01:01:37.503Z,97014.13
2023-04-16T01:04:03.898Z,97010.88
2023-04-16T01:06:30.300Z,97013.53
2023-04-16T01:08:56.560Z,97010.88
2023-04-16T01:11:22.813Z,97014.00
2023-04-16T01:13:49.078Z,97008.66
2023-04-16T01:16:15.370Z,97008.44
2023-04-16T01:18:41.647Z,97009.47
2023-04-16T01:21:07.992Z,97010.53
2023-04-16T01:23:34.241Z,97013.19
2023-04-16T01:26:00.506Z,97018.97
2023-04-16T01:28:26.778Z,97018.16
2023-04-16T01:30:53.043Z,97025.34
2023-04-16T01:33:19.303Z,97030.94
2023-04-16T01:35:45.620Z,97027.78
2023-04-16T01:38:11.907Z,97025.34
2023-04-16T01:40:38.172Z,97030.47
2023-04-16T01:43:04.414Z,97026.19
2023-04-16T01:45:30.679Z,97039.97
2023-04-16T01:47:56.960Z,97023.03
2023-04-16T01:50:23.258Z,97027.56
2023-04-16T01:52:49.539Z,97026.97
2023-04-16T01:55:15.844Z,97031.72
2023-04-16T01:57:42.096Z,97030.09
2023-04-16T02:00:08.357Z,97043.44
2023-04-16T02:02:34.720Z,97042.84
2023-04-16T02:05:01.149Z,97038.09
2023-04-16T02:07:27.407Z,97042.63
2023-04-16T02:09:53.646Z,97044.47
2023-04-16T02:12:19.898Z,97044.72
2023-04-16T02:14:46.152Z,97039.16
2023-04-16T02:17:12.435Z,97038.34
2023-04-16T02:19:38.666Z,97034.63
2023-04-16T02:22:04.936Z,97040.19
2023-04-16T02:24:31.221Z,97039.72
2023-04-16T02:26:57.487Z,97040.31
2023-04-16T02:29:23.744Z,97043.78
2023-04-16T02:31:50.115Z,97040.53
2023-04-16T02:34:16.392Z,97046.69
2023-04-16T02:36:42.671Z,97052.00
2023-04-16T02:39:09.167Z,97048.06
2023-04-16T02:41:35.694Z,97043.78
2023-04-16T02:44:01.948Z,97037.41
2023-04-16T02:46:28.243Z,97034.75
2023-04-16T02:48:54.527Z,97027.78
2023-04-16T02:51:20.784Z,97031.03
2023-04-16T02:53:47.065Z,97035.56
2023-04-16T02:56:13.330Z,97030.81
2023-04-16T02:58:39.600Z,97034.28
2023-04-16T03:01:05.868Z,97034.06
2023-04-16T03:03:32.123Z,97033.81
2023-04-16T03:05:58.390Z,97039.97
2023-04-16T03:08:24.630Z,97041.13
2023-04-16T03:10:50.874Z,97039.50
2023-04-16T03:13:17.145Z,97035.56
2023-04-16T03:15:43.406Z,97041.94
2023-04-16T03:18:09.695Z,97034.16
2023-04-16T03:20:35.963Z,97039.75
2023-04-16T03:23:02.235Z,97028.50
2023-04-16T03:25:28.498Z,97034.63
2023-04-16T03:27:54.812Z,97027.91
2023-04-16T03:30:21.069Z,97029.75
2023-04-16T03:32:47.413Z,97033.00
2023-04-16T03:35:13.708Z,97031.16
2023-04-16T03:37:39.976Z,97027.44
2023-04-16T03:40:06.237Z,97030.94
2023-04-16T03:42:32.545Z,97037.31
2023-04-16T03:44:58.815Z,97033.81
2023-04-16T03:47:25.127Z,97034.88
2023-04-16T03:49:51.410Z,97035.69
2023-04-16T03:52:17.710Z,97028.50
2023-04-16T03:54:43.981Z,97026.06
2023-04-16T03:57:10.243Z,97029.53
2023-04-16T03:59:36.501Z,97030.81
2023-04-16T04:02:02.890Z,97027.31
2023-04-16T04:04:29.349Z,97027.56
2023-04-16T04:06:55.808Z,97031.03
2023-04-16T04:09:22.087Z,97031.03
2023-04-16T04:11:48.403Z,97031.63
2023-04-16T04:14:14.670Z,97033.25
2023-04-16T04:16:41.101Z,97042.88
2023-04-16T04:19:07.828Z,97043.09
2023-04-16T04:21:34.266Z,97039.63
2023-04-16T04:24:00.551Z,97036.13
2023-04-16T04:26:26.888Z,97039.63
2023-04-16T04:28:53.196Z,97044.94
2023-04-16T04:31:19.521Z,97043.09
2023-04-16T04:33:45.800Z,97046.94
2023-04-16T04:36:12.141Z,97041.00
2023-04-16T04:38:38.400Z,97042.63
2023-04-16T04:41:04.703Z,97043.22
2023-04-16T04:43:30.992Z,97041.38
2023-04-16T04:45:57.304Z,97042.97
2023-04-16T04:48:23.645Z,97040.31
2023-04-16T04:50:49.909Z,97055.28
2023-04-16T04:53:16.193Z,97051.34
2023-04-16T04:55:42.446Z,97050.06
2023-04-16T04:58:08.717Z,97052.38
2023-04-16T05:00:34.975Z,97057.47
2023-04-16T05:03:01.319Z,97057.25
2023-04-16T05:05:27.775Z,97057.47
2023-04-16T05:07:54.088Z,97059.09
2023-04-16T05:10:20.342Z,97054.34
2023-04-16T05:12:48.224Z,97062.72
2023-04-16T05:15:15.236Z,97057.97
2023-04-16T05:17:41.565Z,97057.97
2023-04-16T05:20:07.835Z,97061.44
2023-04-16T05:22:34.085Z,97061.66
2023-04-16T05:25:00.337Z,97063.53
2023-04-16T05:27:26.605Z,97057.38
2023-04-16T05:29:52.863Z,97066.41
2023-04-16T05:32:19.227Z,97065.16
2023-04-16T05:34:45.519Z,97054.72
2023-04-16T05:37:11.802Z,97065.16
2023-04-16T05:39:38.044Z,97060.84
2023-04-16T05:42:04.295Z,97067.00
2023-04-16T05:44:30.556Z,97061.44
2023-04-16T05:46:56.820Z,97057.72
2023-04-16T05:49:23.065Z,97063.28
2023-04-16T05:51:50.834Z,97059.81
2023-04-16T05:54:17.381Z,97055.53
2023-04-16T05:56:43.638Z,97060.63
2023-04-16T05:59:10.188Z,97063.63
2023-04-16T06:01:36.632Z,97070.59
2023-04-16T06:04:03.187Z,97063.63
2023-04-16T06:06:29.563Z,97061.56
2023-04-16T06:08:55.842Z,97060.50
2023-04-16T06:11:22.113Z,97067.69
2023-04-16T06:13:48.370Z,97077.34
2023-04-16T06:16:14.799Z,97078.13
2023-04-16T06:18:41.087Z,97074.44
2023-04-16T06:21:07.361Z,97074.44
2023-04-16T06:23:33.652Z,97078.38
2023-04-16T06:25:59.928Z,97076.50
2023-04-16T06:28:26.202Z,97077.56
2023-04-16T06:30:52.457Z,97073.38
2023-04-16T06:33:18.713Z,97078.50
2023-04-16T06:35:44.978Z,97077.69
2023-04-16T06:38:11.297Z,97074.19
2023-04-16T06:40:37.569Z,97074.44
2023-04-16T06:43:03.855Z,97074.19
2023-04-16T06:45:30.124Z,97076.88
2023-04-16T06:47:56.416Z,97077.69
2023-04-16T06:50:22.700Z,97075.00
2023-04-16T06:52:48.969Z,97073.72
2023-04-16T06:55:15.232Z,97075.34
2023-04-16T06:57:41.490Z,97076.19
2023-04-16T07:00:07.746Z,97071.66
2023-04-16T07:02:34.137Z,97066.91
2023-04-16T07:05:00.524Z,97073.84
2023-04-16T07:07:26.811Z,97085.69
2023-04-16T07:09:53.090Z,97080.94
2023-04-16T07:12:20.793Z,97081.50
2023-04-16T07:14:48.686Z,97085.00
2023-04-16T07:17:14.944Z,97083.38
2023-04-16T07:19:41.204Z,97088.00
2023-04-16T07:22:07.488Z,97090.44
2023-04-16T07:24:33.784Z,97096.38
2023-04-16T07:27:00.075Z,97093.69
2023-04-16T07:29:26.394Z,97098.56
2023-04-16T07:31:52.709Z,97093.56
2023-04-16T07:34:19.001Z,97091.25
2023-04-16T07:36:45.267Z,97091.59
2023-04-16T07:39:11.835Z,97098.09
2023-04-16T07:41:38.355Z,97087.75
2023-04-16T07:44:04.599Z,97097.75
2023-04-16T07:46:39.758Z,97096.47
2023-04-16T07:49:12.909Z,97101.34
2023-04-16T07:51:39.168Z,97101.44
2023-04-16T07:54:05.558Z,97102.84
2023-04-16T07:56:31.879Z,97103.97
2023-04-16T07:59:02.852Z,97109.66
2023-04-16T08:01:34.494Z,97111.41
2023-04-16T08:04:01.013Z,97108.25
2023-04-16T08:06:27.379Z,97110.84
2023-04-16T08:08:53.661Z,97109.78
2023-04-16T08:11:19.936Z,97116.75
2023-04-16T08:13:46.186Z,97110.94
2023-04-16T08:16:12.483Z,97115.00
2023-04-16T08:18:38.773Z,97117.44
2023-04-16T08:21:05.052Z,97111.63
2023-04-16T08:23:31.328Z,97117.41
2023-04-16T08:25:57.607Z,97120.41
2023-04-16T08:28:23.909Z,97118.78
2023-04-16T08:30:50.180Z,97123.41
2023-04-16T08:33:16.489Z,97126.44
2023-04-16T08:35:42.794Z,97125.03
2023-04-16T08:38:09.063Z,97129.34
2023-04-16T08:40:35.321Z,97130.16
2023-04-16T08:43:01.571Z,97129.41
2023-04-16T08:45:27.813Z,97126.03
2023-04-16T08:47:54.154Z,97130.19
2023-04-16T08:50:20.627Z,97127.34
2023-04-16T08:52:46.946Z,97135.63
2023-04-16T08:55:13.262Z,97139.34
2023-04-16T08:57:39.511Z,97144.22
2023-04-16T09:00:05.783Z,97149.31
2023-04-16T09:02:32.154Z,97150.13
2023-04-16T09:04:58.691Z,97142.94
2023-04-16T09:07:25.031Z,97149.66
2023-04-16T09:09:51.265Z,97163.28
2023-04-16T09:12:17.526Z,97153.38
2023-04-16T09:14:43.818Z,97156.63
2023-04-16T09:17:10.073Z,97154.44
2023-04-16T09:19:36.329Z,97161.66
2023-04-16T09:22:02.594Z,97161.66
2023-04-16T09:24:28.879Z,97162.22
2023-04-16T09:26:55.217Z,97164.19
2023-04-16T09:29:21.528Z,97166.94
2023-04-16T09:31:47.854Z,97167.75
2023-04-16T09:34:14.171Z,97161.59
2023-04-16T09:36:40.468Z,97164.28
2023-04-16T09:39:06.729Z,97165.41
2023-04-16T09:41:33.047Z,97167.03
2023-04-16T09:43:59.328Z,97158.78
2023-04-16T09:46:25.633Z,97171.91
2023-04-16T09:48:51.941Z,97166.31
2023-04-16T09:51:18.205Z,97167.94
2023-04-16T09:53:44.482Z,97163.16
2023-04-16T09:56:10.741Z,97165.84
2023-04-16T09:58:37.026Z,97161.06
2023-04-16T10:01:03.346Z,97166.19
2023-04-16T10:03:29.823Z,97171.28
2023-04-16T10:05:56.381Z,97174.88
2023-04-16T10:08:22.646Z,97167.09
2023-04-16T10:10:48.908Z,97175.34
2023-04-16T10:13:15.179Z,97176.16
2023-04-16T10:15:41.421Z,97172.66
2023-04-16T10:18:07.758Z,97170.00
2023-04-16T10:20:34.078Z,97172.09
2023-04-16T10:23:00.336Z,97172.34
2023-04-16T10:25:26.590Z,97170.72
2023-04-16T10:27:52.855Z,97175.25
2023-04-16T10:30:19.105Z,97173.41
2023-04-16T10:32:45.470Z,97172.34
2023-04-16T10:35:11.778Z,97180.84
2023-04-16T10:37:38.032Z,97176.88
2023-04-16T10:40:04.292Z,97179.06
2023-04-16T10:42:30.559Z,97183.13
2023-04-16T10:44:56.820Z,97181.50
2023-04-16T10:47:23.149Z,97178.25
2023-04-16T10:49:49.404Z,97181.75
2023-04-16T10:52:15.698Z,97176.97
2023-04-16T10:54:41.989Z,97180.22
2023-04-16T10:57:08.251Z,97178.69
2023-04-16T10:59:34.528Z,97180.06
2023-04-16T11:02:00.884Z,97180.72
2023-04-16T11:04:27.315Z,97178.16
2023-04-16T11:06:53.698Z,97181.16
2023-04-16T11:09:19.955Z,97177.50
2023-04-16T11:11:46.233Z,97174.25
2023-04-16T11:14:12.506Z,97177.84
2023-04-16T11:16:38.753Z,97178.88
2023-04-16T11:19:05.019Z,97178.56
2023-04-16T11:21:31.263Z,97174.00
2023-04-16T11:23:57.645Z,97176.88
2023-04-16T11:26:23.901Z,97178.72
2023-04-16T11:28:50.195Z,97177.84
2023-04-16T11:31:16.529Z,97180.50
2023-04-16T11:33:42.841Z,97179.13
2023-04-16T11:36:09.098Z,97175.88
2023-04-16T11:38:35.350Z,97177.59
2023-04-16T11:41:01.602Z,97171.38
2023-04-16T11:43:27.873Z,97175.91
2023-04-16T11:45:54.142Z,97161.47
2023-04-16T11:48:20.395Z,97167.72
2023-04-16T11:50:46.666Z,97164.63
2023-04-16T11:53:12.930Z,97162.13
2023-04-16T11:55:39.215Z,97171.78
2023-04-16T11:58:05.496Z,97172.09
2023-04-16T12:00:31.785Z,97170.56
2023-04-16T12:02:58.234Z,97168.44
2023-04-16T12:05:24.708Z,97166.66
2023-04-16T12:07:50.990Z,97168.91
2023-04-16T12:10:17.302Z,97175.97
2023-04-16T12:12:43.595Z,97166.63
2023-04-16T12:15:09.891Z,97168.66
2023-04-16T12:17:36.220Z,97172.16
2023-04-16T12:20:02.536Z,97170.03
2023-04-16T12:22:28.772Z,97170.84
2023-04-16T12:24:55.039Z,97171.66
2023-04-16T12:27:21.273Z,97171.09
2023-04-16T12:29:47.536Z,97167.28
2023-04-16T12:32:13.804Z,97172.16
2023-04-16T12:34:48.354Z,97172.06
2023-04-16T12:37:17.433Z,97168.59
2023-04-16T12:39:43.864Z,97176.94
2023-04-16T12:42:10.153Z,97172.88
2023-04-16T12:44:36.408Z,97165.81
2023-04-16T12:47:02.670Z,97174.72
2023-04-16T12:49:28.959Z,97171.47
2023-04-16T12:51:55.229Z,97170.66
2023-04-16T12:54:21.514Z,97174.41
2023-04-16T12:56:47.764Z,97170.91
2023-04-16T12:59:14.063Z,97171.72
2023-04-16T13:01:40.407Z,97163.53
2023-04-16T13:04:06.779Z,97163.53
2023-04-16T13:06:33.112Z,97157.94
2023-04-16T13:08:59.399Z,97157.63
2023-04-16T13:11:25.677Z,97163.97
2023-04-16T13:13:51.942Z,97158.28
2023-04-16T13:16:18.271Z,97153.50
2023-04-16T13:18:44.545Z,97156.09
2023-04-16T13:21:10.781Z,97157.31
2023-04-16T13:23:37.030Z,97157.63
2023-04-16T13:26:03.291Z,97153.88
2023-04-16T13:28:29.547Z,97149.34
2023-04-16T13:30:55.819Z,97161.19
2023-04-16T13:33:22.109Z,97154.03
2023-04-16T13:35:48.356Z,97165.31
2023-04-16T13:38:14.632Z,97158.00
2023-04-16T13:40:40.896Z,97149.47
2023-04-16T13:43:07.889Z,97147.09
2023-04-16T13:45:34.189Z,97151.09
2023-04-16T13:48:00.485Z,97148.41
2023-04-16T13:50:26.784Z,97148.16
2023-04-16T13:52:53.065Z,97147.09
2023-04-16T13:55:19.325Z,97143.94
2023-04-16T13:57:45.564Z,97134.59
2023-04-16T14:00:13.207Z,97139.16
2023-04-16T14:02:39.830Z,97143.97
2023-04-16T14:05:06.244Z,97137.06
2023-04-16T14:07:32.508Z,97138.44
2023-04-16T14:09:58.781Z,97136.50
2023-04-16T14:12:25.137Z,97141.56
2023-04-16T14:14:51.399Z,97137.50
2023-04-16T14:17:17.671Z,97134.69
2023-04-16T14:19:43.949Z,97140.13
2023-04-16T14:22:10.207Z,97145.50
2023-04-16T14:24:36.471Z,97143.94
2023-04-16T14:27:02.731Z,97140.63
2023-04-16T14:29:28.998Z,97130.28
2023-04-16T14:31:55.324Z,97140.75
2023-04-16T14:34:21.623Z,97140.44
2023-04-16T14:36:47.929Z,97142.38
2023-04-16T14:39:14.185Z,97137.50
2023-04-16T14:41:40.490Z,97147.44
2023-04-16T14:44:06.752Z,97149.28
2023-04-16T14:46:33.020Z,97145.25
2023-04-16T14:48:59.281Z,97140.13
2023-04-16T14:51:25.546Z,97139.31
2023-04-16T14:53:51.824Z,97148.16
2023-04-16T14:56:18.092Z,97144.19
2023-04-16T14:58:44.366Z,97145.31
2023-04-16T15:01:10.800Z,97140.22
2023-04-16T15:03:37.264Z,97139.16
2023-04-16T15:06:03.646Z,97147.84
2023-04-16T15:08:29.903Z,97136.31
2023-04-16T15:10:56.168Z,97138.19
2023-04-16T15:13:22.433Z,97133.06
2023-04-16T15:15:48.673Z,97135.38
2023-04-16T15:18:14.936Z,97130.56
2023-04-16T15:20:41.218Z,97137.63
2023-04-16T15:23:07.472Z,97136.25
2023-04-16T15:25:33.767Z,97134.94
2023-04-16T15:28:00.033Z,97135.75
2023-04-16T15:30:26.288Z,97136.88
2023-04-16T15:32:52.781Z,97141.59
2023-04-16T15:35:19.167Z,97142.47
2023-04-16T15:37:45.430Z,97141.41
2023-04-16T15:40:11.675Z,97145.47
2023-04-16T15:42:37.934Z,97139.03
2023-04-16T15:45:04.194Z,97144.09
2023-04-16T15:47:30.545Z,97132.88
2023-04-16T15:49:56.833Z,97141.47
2023-04-16T15:52:23.088Z,97141.72
2023-04-16T15:54:49.328Z,97146.28
2023-04-16T15:57:15.610Z,97145.78
2023-04-16T15:59:43.543Z,97146.78
2023-04-16T16:02:12.467Z,97145.84
2023-04-16T16:04:38.833Z,97148.47
2023-04-16T16:07:05.117Z,97157.13
2023-04-16T16:09:31.372Z,97145.97
2023-04-16T16:11:57.637Z,97153.91
2023-04-16T16:14:23.918Z,97158.25
2023-04-16T16:16:50.197Z,97159.69
2023-04-16T16:19:18.803Z,97159.88
2023-04-16T16:21:45.070Z,97158.75
2023-04-16T16:24:11.354Z,97168.59
2023-04-16T16:26:37.617Z,97166.00
2023-04-16T16:29:03.875Z,97164.50
2023-04-16T16:31:30.203Z,97160.06
2023-04-16T16:33:56.575Z,97167.22
2023-04-16T16:36:22.840Z,97167.28
2023-04-16T16:38:49.104Z,97174.53
2023-04-16T16:41:15.381Z,97177.69
2023-04-16T16:43:41.622Z,97175.28
2023-04-16T16:46:07.873Z,97175.19
2023-04-16T16:48:34.138Z,97173.16
2023-04-16T16:51:00.399Z,97181.19
2023-04-16T16:53:26.666Z,97186.69
2023-04-16T16:55:52.971Z,97176.97
2023-04-16T16:58:19.255Z,97185.66
2023-04-16T17:00:45.567Z,97190.66
2023-04-16T17:03:12.053Z,97188.75
2023-04-16T17:05:38.454Z,97190.81
2023-04-16T17:08:04.708Z,97192.03
2023-04-16T17:10:30.966Z,97193.03
2023-04-16T17:12:57.271Z,97194.09
2023-04-16T17:15:23.547Z,97185.34
2023-04-16T17:17:49.971Z,97198.16
2023-04-16T17:20:16.338Z,97199.28
2023-04-16T17:22:42.675Z,97191.84
2023-04-16T17:25:09.020Z,97206.94
2023-04-16T17:27:35.365Z,97200.19
2023-04-16T17:30:01.626Z,97206.94
2023-04-16T17:32:28.033Z,97201.31
2023-04-16T17:34:54.324Z,97201.41
2023-04-16T17:37:20.573Z,97202.81
2023-04-16T17:39:46.855Z,97199.69
2023-04-16T17:42:13.124Z,97206.13
2023-04-16T17:44:39.385Z,97201.91
2023-04-16T17:47:05.626Z,97204.91
2023-04-16T17:49:31.896Z,97214.47
2023-04-16T17:51:58.173Z,97205.31
2023-04-16T17:54:24.448Z,97207.16
2023-04-16T17:56:50.756Z,97205.31
2023-04-16T17:59:17.029Z,97206.84
2023-04-16T18:01:43.353Z,97210.00
2023-04-16T18:04:09.895Z,97207.81
2023-04-16T18:06:36.440Z,97209.69
2023-04-16T18:09:02.762Z,97212.34
2023-04-16T18:11:30.675Z,97213.16
2023-04-16T18:13:57.517Z,97212.94
2023-04-16T18:16:23.876Z,97218.53
2023-04-16T18:18:50.236Z,97216.66
2023-04-16T18:21:16.493Z,97208.06
2023-04-16T18:23:42.784Z,97211.19
2023-04-16T18:26:09.479Z,97221.56
2023-04-16T18:28:37.269Z,97203.22
2023-04-16T18:31:03.601Z,97212.22
2023-04-16T18:33:49.974Z,97215.84
2023-04-16T18:36:16.108Z,97210.50
2023-04-16T18:38:57.037Z,97214.81
2023-04-16T18:41:26.237Z,97217.25
2023-04-16T18:43:52.534Z,97219.44
2023-04-16T18:46:18.800Z,97217.56
2023-04-16T18:48:45.148Z,97221.06
2023-04-16T18:51:11.894Z,97218.13
2023-04-16T18:53:38.799Z,97228.28
2023-04-16T18:56:05.049Z,97228.44
2023-04-16T18:58:31.300Z,97228.91
2023-04-16T19:00:57.569Z,97239.41
2023-04-16T19:03:23.856Z,97230.09
2023-04-16T19:05:50.133Z,97231.16
2023-04-16T19:08:16.396Z,97237.88
2023-04-16T19:10:42.664Z,97231.97
2023-04-16T19:13:08.904Z,97238.94
2023-04-16T19:15:35.169Z,97240.72
2023-04-16T19:18:01.506Z,97235.69
2023-04-16T19:20:27.853Z,97236.50
2023-04-16T19:22:54.121Z,97245.34
2023-04-16T19:25:20.396Z,97244.28
2023-04-16T19:27:46.660Z,97245.59
2023-04-16T19:30:12.941Z,97242.09
2023-04-16T19:32:39.235Z,97240.47
2023-04-16T19:35:05.534Z,97243.38
2023-04-16T19:37:31.827Z,97253.38
2023-04-16T19:39:58.102Z,97255.25
2023-04-16T19:42:24.375Z,97257.69
2023-04-16T19:44:50.621Z,97257.00
2023-04-16T19:47:16.884Z,97256.19
2023-04-16T19:49:43.225Z,97256.19
2023-04-16T19:52:09.518Z,97247.59
2023-04-16T19:54:35.778Z,97248.41
2023-04-16T19:57:02.113Z,97244.91
2023-04-16T19:59:28.470Z,97244.34
2023-04-16T20:01:54.818Z,97243.75
2023-04-16T20:04:21.173Z,97242.75
2023-04-16T20:06:47.457Z,97241.38
2023-04-16T20:09:13.809Z,97241.59
2023-04-16T20:11:40.149Z,97234.97
2023-04-16T20:14:06.415Z,97231.34
2023-04-16T20:16:32.739Z,97235.50
2023-04-16T20:18:59.798Z,97233.06
2023-04-16T20:21:27.538Z,97233.53
2023-04-16T20:23:53.809Z,97228.09
2023-04-16T20:26:20.115Z,97228.19
2023-04-16T20:28:46.444Z,97234.34
2023-04-16T20:31:12.764Z,97232.97
2023-04-16T20:33:39.032Z,97220.50
2023-04-16T20:36:05.353Z,97228.91
2023-04-16T20:38:31.625Z,97223.78
2023-04-16T20:40:57.884Z,97224.13
2023-04-16T20:43:24.160Z,97226.84
2023-04-16T20:45:50.445Z,97221.44
2023-04-16T20:48:16.834Z,97223.78
2023-04-16T20:50:43.134Z,97222.50
2023-04-16T20:53:09.383Z,97215.66
2023-04-16T20:55:35.654Z,97219.06
2023-04-16T20:58:01.952Z,97216.97
2023-04-16T21:00:28.294Z,97212.41
2023-04-16T21:02:54.659Z,97207.53
2023-04-16T21:05:20.990Z,97209.41
2023-04-16T21:07:48.304Z,97201.03
2023-04-16T21:10:14.563Z,97198.16
2023-04-16T21:12:40.819Z,97196.06
2023-04-16T21:15:07.098Z,97199.97
2023-04-16T21:17:33.375Z,97194.34
2023-04-16T21:19:59.680Z,97193.09
2023-04-16T21:22:25.970Z,97189.94
2023-04-16T21:24:52.224Z,97198.44
2023-04-16T21:27:18.548Z,97190.59
2023-04-16T21:29:44.877Z,97190.25
2023-04-16T21:32:11.176Z,97201.53
2023-04-16T21:34:37.469Z,97195.97
2023-04-16T21:37:03.857Z,97206.41
2023-04-16T21:39:30.109Z,97202.22
2023-04-16T21:41:56.379Z,97201.19
2023-04-16T21:44:22.654Z,97198.75
2023-04-16T21:46:48.980Z,97204.41
2023-04-16T21:49:15.259Z,97199.66
2023-04-16T21:51:41.524Z,97205.53
2023-04-16T21:54:07.783Z,97198.16
2023-04-16T21:56:34.042Z,97195.81
2023-04-16T21:59:00.303Z,97193.03
2023-04-16T22:01:26.613Z,97189.91
2023-04-16T22:03:53.094Z,97193.53
2023-04-16T22:06:19.495Z,97189.09
2023-04-16T22:08:45.762Z,97175.63
2023-04-16T22:11:12.008Z,97187.84
2023-04-16T22:13:38.261Z,97186.66
2023-04-16T22:16:04.692Z,97180.63
2023-04-16T22:18:31.044Z,97181.69
2023-04-16T22:20:57.283Z,97180.75
2023-04-16T22:23:23.553Z,97173.41
2023-04-16T22:25:49.850Z,97169.22
2023-04-16T22:28:16.101Z,97167.16
2023-04-16T22:30:42.377Z,97156.81
2023-04-16T22:33:08.719Z,97156.09
2023-04-16T22:35:35.082Z,97156.25
2023-04-16T22:38:01.322Z,97146.13
2023-04-16T22:40:27.623Z,97148.34
2023-04-16T22:42:53.881Z,97143.59
2023-04-16T22:45:20.129Z,97144.97
2023-04-16T22:47:46.446Z,97139.53
2023-04-16T22:50:12.725Z,97160.31
2023-04-16T22:52:38.996Z,97144.88
2023-04-16T22:55:05.242Z,97141.38
2023-04-16T22:57:31.501Z,97142.19
2023-04-16T22:59:57.763Z,97135.56
2023-04-16T23:02:24.193Z,97140.91
2023-04-16T23:04:50.541Z,97141.16
2023-04-16T23:07:16.810Z,97142.53
2023-04-16T23:09:43.082Z,97149.97
2023-04-16T23:12:09.326Z,97140.81
2023-04-16T23:14:35.608Z,97141.38
2023-04-16T23:17:01.901Z,97133.94
2023-04-16T23:19:28.186Z,97129.31
2023-04-16T23:21:54.458Z,97130.94
2023-04-16T23:24:20.730Z,97134.88
2023-04-16T23:26:47.000Z,97140.34
2023-04-16T23:29:13.469Z,97141.28
2023-04-16T23:31:39.886Z,97132.69
2023-04-16T23:34:06.171Z,97146.03
2023-04-16T23:36:32.439Z,97125.47
2023-04-16T23:38:58.683Z,97127.56
2023-04-16T23:41:24.929Z,97122.34
2023-04-16T23:43:51.274Z,97126.97
2023-04-16T23:46:17.581Z,97120.38
2023-04-16T23:48:43.862Z,97126.47
2023-04-16T23:51:10.106Z,97116.13
2023-04-16T23:53:36.375Z,97118.13
2023-04-16T23:56:02.638Z,97107.78
2023-04-16T23:58:28.897Z,97108.66
